createdAt,value
2022-10-04T00:01:50.550Z,9.59
2022-10-04T00:04:24.442Z,9.55
2022-10-04T00:06:58.325Z,9.47
2022-10-04T00:09:32.320Z,9.55
2022-10-04T00:12:01.845Z,9.51
2022-10-04T00:14:33.447Z,9.46
2022-10-04T00:17:10.947Z,9.52
2022-10-04T00:19:47.987Z,9.30
2022-10-04T00:22:23.804Z,9.18
2022-10-04T00:25:18.449Z,8.89
2022-10-04T00:28:28.576Z,8.95
2022-10-04T00:31:24.669Z,8.70
2022-10-04T00:33:58.050Z,8.48
2022-10-04T00:36:39.730Z,8.72
2022-10-04T00:39:39.801Z,8.88
2022-10-04T00:42:41.969Z,9.06
2022-10-04T00:45:20.273Z,9.16
2022-10-04T00:48:31.764Z,9.06
2022-10-04T00:51:07.972Z,8.84
2022-10-04T00:53:45.981Z,9.02
2022-10-04T00:56:19.814Z,9.06
2022-10-04T00:59:13.003Z,8.97
2022-10-04T01:01:41.165Z,8.77
2022-10-04T01:04:24.898Z,8.93
2022-10-04T01:06:54.993Z,9.06
2022-10-04T01:09:23.648Z,8.81
2022-10-04T01:12:00.899Z,8.70
2022-10-04T01:14:40.958Z,8.76
2022-10-04T01:17:10.100Z,8.72
2022-10-04T01:19:41.355Z,8.55
2022-10-04T01:22:19.184Z,8.52
2022-10-04T01:24:48.471Z,8.68
2022-10-04T01:27:35.699Z,8.54
2022-10-04T01:30:07.595Z,8.50
2022-10-04T01:32:36.741Z,8.31
2022-10-04T01:35:04.971Z,8.28
2022-10-04T01:37:33.741Z,8.34
2022-10-04T01:40:03.413Z,8.26
2022-10-04T01:42:37.823Z,8.16
2022-10-04T01:45:11.816Z,7.84
2022-10-04T01:47:45.368Z,7.74
2022-10-04T01:50:19.053Z,7.59
2022-10-04T01:52:50.071Z,7.87
2022-10-04T01:55:24.862Z,7.90
2022-10-04T01:57:58.839Z,8.02
2022-10-04T02:00:41.027Z,7.68
2022-10-04T02:03:15.563Z,7.64
2022-10-04T02:05:50.404Z,7.87
2022-10-04T02:08:23.543Z,7.95
2022-10-04T02:10:54.901Z,7.82
2022-10-04T02:13:26.060Z,7.80
2022-10-04T02:15:54.294Z,8.11
2022-10-04T02:18:24.892Z,8.16
2022-10-04T02:20:55.050Z,8.11
2022-10-04T02:23:24.418Z,8.37
2022-10-04T02:25:53.655Z,8.02
2022-10-04T02:28:21.652Z,7.79
2022-10-04T02:31:06.406Z,7.62
2022-10-04T02:33:34.914Z,7.59
2022-10-04T02:36:03.138Z,7.61
2022-10-04T02:38:36.688Z,7.80
2022-10-04T02:41:12.580Z,8.00
2022-10-04T02:43:47.334Z,8.01
2022-10-04T02:46:19.613Z,7.86
2022-10-04T02:48:49.531Z,7.69
2022-10-04T02:51:22.620Z,7.85
2022-10-04T02:54:04.120Z,7.83
2022-10-04T02:56:34.677Z,7.71
2022-10-04T02:59:04.160Z,7.81
2022-10-04T03:01:46.416Z,7.66
2022-10-04T03:04:15.848Z,7.79
2022-10-04T03:06:46.200Z,7.88
2022-10-04T03:09:16.612Z,7.94
2022-10-04T03:11:46.492Z,7.95
2022-10-04T03:14:18.357Z,7.83
2022-10-04T03:16:48.091Z,7.68
2022-10-04T03:19:17.722Z,7.62
2022-10-04T03:21:48.766Z,7.78
2022-10-04T03:24:20.630Z,7.89
2022-10-04T03:26:53.699Z,7.80
2022-10-04T03:29:25.000Z,7.60
2022-10-04T03:31:56.134Z,7.48
2022-10-04T03:34:26.525Z,7.41
2022-10-04T03:36:58.669Z,7.60
2022-10-04T03:39:32.602Z,7.59
2022-10-04T03:42:05.955Z,7.53
2022-10-04T03:44:34.191Z,7.65
2022-10-04T03:47:02.553Z,7.69
2022-10-04T03:49:34.715Z,7.64
2022-10-04T03:52:04.734Z,7.41
2022-10-04T03:54:33.725Z,7.63
2022-10-04T03:57:03.708Z,7.91
2022-10-04T03:59:31.621Z,7.91
2022-10-04T04:02:12.664Z,7.86
2022-10-04T04:04:48.153Z,7.58
2022-10-04T04:07:21.382Z,7.55
2022-10-04T04:09:54.201Z,7.64
2022-10-04T04:12:27.114Z,7.80
2022-10-04T04:14:55.584Z,7.62
2022-10-04T04:17:37.563Z,7.30
2022-10-04T04:20:11.717Z,7.11
2022-10-04T04:22:42.229Z,7.11
2022-10-04T04:25:16.491Z,6.99
2022-10-04T04:27:49.351Z,7.15
2022-10-04T04:30:19.332Z,7.07
2022-10-04T04:32:52.698Z,7.22
2022-10-04T04:35:26.349Z,7.53
2022-10-04T04:38:14.231Z,7.39
2022-10-04T04:40:42.341Z,7.52
2022-10-04T04:43:18.054Z,7.37
2022-10-04T04:46:03.043Z,7.38
2022-10-04T04:48:38.110Z,7.34
2022-10-04T04:51:06.667Z,7.24
2022-10-04T04:53:34.625Z,7.27
2022-10-04T04:56:05.186Z,7.28
2022-10-04T04:58:37.544Z,7.33
2022-10-04T05:01:10.272Z,7.11
2022-10-04T05:03:38.197Z,6.89
2022-10-04T05:06:07.415Z,6.95
2022-10-04T05:08:41.015Z,7.13
2022-10-04T05:11:16.504Z,7.26
2022-10-04T05:13:51.704Z,7.26
2022-10-04T05:16:23.505Z,7.45
2022-10-04T05:18:57.370Z,7.41
2022-10-04T05:21:29.487Z,7.30
2022-10-04T05:23:58.503Z,7.33
2022-10-04T05:26:29.981Z,7.30
2022-10-04T05:29:03.228Z,7.35
2022-10-04T05:31:42.442Z,7.26
2022-10-04T05:34:23.041Z,7.31
2022-10-04T05:37:11.166Z,7.41
2022-10-04T05:39:44.787Z,7.41
2022-10-04T05:42:21.541Z,7.43
2022-10-04T05:44:53.979Z,7.33
2022-10-04T05:47:24.238Z,7.49
2022-10-04T05:49:55.484Z,7.68
2022-10-04T05:52:30.642Z,7.79
2022-10-04T05:55:19.227Z,8.00
2022-10-04T05:57:59.554Z,7.70
2022-10-04T06:00:41.465Z,7.65
2022-10-04T06:03:25.409Z,7.38
2022-10-04T06:05:56.582Z,7.61
2022-10-04T06:08:35.781Z,8.00
2022-10-04T06:11:11.926Z,8.30
2022-10-04T06:14:15.444Z,8.50
2022-10-04T06:17:08.434Z,8.49
2022-10-04T06:19:56.397Z,8.50
2022-10-04T06:22:26.826Z,8.74
2022-10-04T06:25:01.561Z,8.92
2022-10-04T06:27:36.803Z,8.66
2022-10-04T06:30:07.640Z,8.49
2022-10-04T06:33:07.281Z,8.77
2022-10-04T06:36:01.881Z,9.00
2022-10-04T06:39:06.472Z,9.19
2022-10-04T06:41:50.076Z,9.41
2022-10-04T06:44:46.242Z,9.18
2022-10-04T06:47:27.143Z,9.06
2022-10-04T06:50:06.529Z,9.21
2022-10-04T06:52:49.922Z,9.34
2022-10-04T06:55:42.114Z,9.68
2022-10-04T06:58:36.994Z,9.72
2022-10-04T07:01:23.815Z,10.03
2022-10-04T07:03:57.165Z,10.18
2022-10-04T07:06:32.386Z,10.30
2022-10-04T07:09:05.469Z,10.51
2022-10-04T07:11:43.903Z,10.54
2022-10-04T07:14:16.981Z,10.53
2022-10-04T07:16:49.621Z,10.71
2022-10-04T07:19:36.138Z,10.80
2022-10-04T07:22:17.167Z,10.87
2022-10-04T07:25:14.816Z,10.83
2022-10-04T07:28:13.885Z,11.05
2022-10-04T07:30:47.152Z,11.26
2022-10-04T07:33:19.049Z,11.27
2022-10-04T07:35:50.512Z,11.20
2022-10-04T07:38:27.050Z,11.21
2022-10-04T07:41:11.989Z,11.23
2022-10-04T07:43:50.733Z,11.38
2022-10-04T07:46:38.504Z,11.63
2022-10-04T07:49:12.408Z,11.89
2022-10-04T07:51:47.321Z,12.12
2022-10-04T07:54:25.405Z,12.08
2022-10-04T07:57:00.854Z,12.02
2022-10-04T07:59:41.174Z,12.30
2022-10-04T08:02:27.702Z,12.33
2022-10-04T08:05:09.132Z,12.29
2022-10-04T08:07:52.077Z,12.14
2022-10-04T08:10:27.687Z,12.29
2022-10-04T08:13:06.918Z,12.76
2022-10-04T08:15:38.726Z,13.16
2022-10-04T08:18:22.286Z,13.37
2022-10-04T08:20:56.369Z,13.48
2022-10-04T08:23:57.147Z,13.73
2022-10-04T08:26:42.370Z,13.93
2022-10-04T08:29:45.934Z,13.91
2022-10-04T08:32:28.218Z,14.13
2022-10-04T08:35:20.402Z,14.22
2022-10-04T08:38:02.257Z,13.88
2022-10-04T08:41:19.067Z,13.43
2022-10-04T08:44:25.258Z,13.56
2022-10-04T08:47:32.092Z,13.94
2022-10-04T08:53:22.685Z,13.87
2022-10-04T08:56:10.158Z,13.84
2022-10-04T08:59:15.771Z,13.81
2022-10-04T09:02:00.148Z,14.27
2022-10-04T09:05:03.412Z,14.07
2022-10-04T09:08:04.162Z,13.39
2022-10-04T09:10:57.315Z,13.89
2022-10-04T09:13:37.439Z,14.45
2022-10-04T09:16:17.117Z,14.39
2022-10-04T09:19:00.384Z,14.56
2022-10-04T09:21:38.515Z,14.77
2022-10-04T09:24:26.540Z,14.96
2022-10-04T09:27:00.436Z,14.73
2022-10-04T09:29:49.131Z,14.65
2022-10-04T09:32:59.667Z,14.73
2022-10-04T09:35:46.776Z,14.13
2022-10-04T09:39:11.454Z,14.36
2022-10-04T09:42:02.188Z,14.26
2022-10-04T09:44:57.004Z,14.17
2022-10-04T09:47:45.956Z,14.19
2022-10-04T09:50:53.766Z,14.44
2022-10-04T09:53:35.364Z,14.26
2022-10-04T09:56:28.176Z,14.77
2022-10-04T09:59:34.248Z,14.50
2022-10-04T10:02:36.525Z,15.02
2022-10-04T10:05:24.687Z,15.00
2022-10-04T10:08:01.441Z,15.09
2022-10-04T10:10:58.501Z,15.18
2022-10-04T10:13:45.058Z,15.04
2022-10-04T10:16:43.195Z,15.25
2022-10-04T10:19:39.090Z,15.02
2022-10-04T10:22:30.524Z,15.14
2022-10-04T10:25:14.069Z,15.26
2022-10-04T10:28:05.466Z,15.38
2022-10-04T10:30:51.077Z,15.36
2022-10-04T10:34:07.776Z,15.40
2022-10-04T10:37:00.435Z,15.29
2022-10-04T10:40:08.993Z,15.51
2022-10-04T10:42:52.022Z,15.69
2022-10-04T10:45:45.613Z,15.61
2022-10-04T10:48:18.427Z,15.60
2022-10-04T10:51:03.447Z,15.97
2022-10-04T10:54:11.964Z,15.90
2022-10-04T10:57:00.935Z,15.99
2022-10-04T11:00:12.311Z,16.08
2022-10-04T11:03:15.716Z,16.03
2022-10-04T11:06:30.348Z,15.92
2022-10-04T11:09:32.745Z,16.42
2022-10-04T11:12:40.008Z,16.42
2022-10-04T11:15:40.749Z,16.25
2022-10-04T11:18:26.574Z,16.19
2022-10-04T11:21:29.403Z,15.75
2022-10-04T11:24:44.529Z,15.30
2022-10-04T11:27:20.597Z,15.62
2022-10-04T11:30:11.425Z,15.73
2022-10-04T11:33:18.992Z,15.94
2022-10-04T11:36:19.055Z,16.37
2022-10-04T11:39:04.706Z,16.75
2022-10-04T11:41:51.212Z,17.02
2022-10-04T11:44:49.359Z,16.79
2022-10-04T11:47:32.676Z,17.36
2022-10-04T11:50:26.302Z,17.81
2022-10-04T11:53:42.586Z,17.57
2022-10-04T11:56:47.367Z,17.98
2022-10-04T11:59:27.554Z,17.77
2022-10-04T12:02:32.242Z,17.84
2022-10-04T12:05:54.050Z,18.01
2022-10-04T12:08:30.022Z,18.09
2022-10-04T12:11:49.194Z,17.75
2022-10-04T12:14:32.631Z,17.43
2022-10-04T12:17:30.962Z,17.31
2022-10-04T12:20:28.998Z,17.51
2022-10-04T12:23:27.366Z,17.66
2022-10-04T12:26:22.234Z,17.47
2022-10-04T12:29:14.169Z,17.49
2022-10-04T12:31:47.044Z,17.43
2022-10-04T12:34:21.369Z,17.46
2022-10-04T12:37:13.728Z,17.66
2022-10-04T12:40:00.779Z,18.09
2022-10-04T12:42:36.928Z,18.26
2022-10-04T12:45:39.186Z,18.26
2022-10-04T12:48:28.903Z,17.93
2022-10-04T12:51:08.124Z,18.48
2022-10-04T12:53:54.507Z,18.50
2022-10-04T12:56:47.122Z,18.36
2022-10-04T12:59:33.439Z,17.87
2022-10-04T13:02:14.073Z,18.03
2022-10-04T13:04:49.955Z,17.83
2022-10-04T13:07:39.371Z,18.04
2022-10-04T13:10:51.426Z,18.24
2022-10-04T13:13:59.632Z,18.30
2022-10-04T13:19:40.308Z,18.13
2022-10-04T13:22:51.322Z,18.17
2022-10-04T13:25:25.820Z,18.12
2022-10-04T13:28:01.279Z,18.27
2022-10-04T13:30:38.588Z,18.45
2022-10-04T13:33:16.801Z,18.40
2022-10-04T13:35:54.358Z,18.53
2022-10-04T13:38:45.091Z,18.30
2022-10-04T13:41:25.684Z,17.95
2022-10-04T13:44:13.341Z,18.25
2022-10-04T13:46:54.897Z,18.21
2022-10-04T13:49:34.648Z,18.46
2022-10-04T13:52:33.984Z,18.66
2022-10-04T13:55:42.201Z,18.47
2022-10-04T13:58:20.780Z,18.60
2022-10-04T14:01:19.536Z,18.71
2022-10-04T14:04:00.523Z,18.91
2022-10-04T14:07:06.917Z,18.54
2022-10-04T14:09:51.962Z,18.27
2022-10-04T14:12:53.113Z,18.38
2022-10-04T14:15:59.456Z,18.08
2022-10-04T14:19:07.040Z,18.28
2022-10-04T14:21:55.316Z,18.56
2022-10-04T14:25:05.383Z,18.81
2022-10-04T14:28:00.732Z,18.55
2022-10-04T14:30:38.161Z,18.66
2022-10-04T14:33:33.247Z,18.79
2022-10-04T14:36:36.487Z,18.99
2022-10-04T14:39:27.871Z,18.93
2022-10-04T14:42:25.212Z,19.14
2022-10-04T14:45:20.867Z,18.83
2022-10-04T14:48:19.852Z,19.00
2022-10-04T14:51:04.441Z,18.93
2022-10-04T14:53:38.596Z,18.94
2022-10-04T14:56:26.255Z,18.91
2022-10-04T14:59:06.302Z,18.88
2022-10-04T15:01:37.508Z,18.35
2022-10-04T15:04:23.199Z,18.47
2022-10-04T15:06:55.296Z,18.60
2022-10-04T15:09:59.024Z,18.29
2022-10-04T15:15:56.559Z,18.72
2022-10-04T15:18:37.833Z,18.67
2022-10-04T15:21:21.863Z,18.69
2022-10-04T15:23:56.060Z,18.81
2022-10-04T15:26:54.188Z,18.87
2022-10-04T15:29:30.071Z,18.85
2022-10-04T15:32:08.094Z,18.36
2022-10-04T15:34:46.463Z,18.46
2022-10-04T15:37:25.556Z,18.38
2022-10-04T15:40:22.832Z,18.42
2022-10-04T15:43:06.514Z,18.11
2022-10-04T15:45:55.634Z,18.10
2022-10-04T15:48:35.548Z,18.08
2022-10-04T15:51:15.387Z,17.95
2022-10-04T15:53:56.015Z,18.01
2022-10-04T15:56:34.158Z,17.85
2022-10-04T15:59:30.942Z,17.68
2022-10-04T16:02:24.050Z,17.59
2022-10-04T16:05:04.404Z,17.46
2022-10-04T16:07:42.957Z,17.27
2022-10-04T16:10:20.167Z,17.10
2022-10-04T16:13:14.313Z,16.97
2022-10-04T16:15:48.075Z,16.84
2022-10-04T16:18:36.779Z,16.61
2022-10-04T16:21:16.108Z,16.46
2022-10-04T16:23:46.273Z,16.22
2022-10-04T16:26:34.835Z,16.04
2022-10-04T16:29:18.288Z,15.73
2022-10-04T16:31:54.215Z,15.36
2022-10-04T16:34:48.102Z,15.08
2022-10-04T16:37:40.173Z,14.76
2022-10-04T16:40:27.078Z,14.53
2022-10-04T16:43:01.209Z,14.31
2022-10-04T16:45:44.778Z,14.16
2022-10-04T16:48:34.109Z,14.04
2022-10-04T16:51:23.373Z,13.94
2022-10-04T16:53:59.438Z,13.84
2022-10-04T16:56:29.712Z,13.71
2022-10-04T16:59:00.554Z,13.62
2022-10-04T17:01:58.135Z,13.46
2022-10-04T17:04:45.623Z,13.36
2022-10-04T17:07:28.109Z,13.33
2022-10-04T17:10:03.368Z,13.21
2022-10-04T17:12:39.983Z,13.26
2022-10-04T17:15:31.665Z,13.23
2022-10-04T17:18:13.199Z,13.18
2022-10-04T17:20:52.278Z,13.09
2022-10-04T17:23:44.397Z,13.01
2022-10-04T17:26:27.384Z,12.96
2022-10-04T17:28:58.110Z,12.91
2022-10-04T17:31:34.815Z,12.81
2022-10-04T17:34:19.103Z,12.55
2022-10-04T17:36:51.125Z,12.43
2022-10-04T17:39:32.853Z,12.30
2022-10-04T17:42:16.191Z,12.25
2022-10-04T17:45:01.262Z,12.18
2022-10-04T17:47:51.118Z,12.04
2022-10-04T17:50:43.497Z,11.97
2022-10-04T17:53:37.909Z,11.92
2022-10-04T17:56:09.396Z,11.88
2022-10-04T17:58:44.597Z,11.76
2022-10-04T18:01:17.518Z,11.51
2022-10-04T18:03:52.407Z,11.26
2022-10-04T18:06:33.563Z,11.17
2022-10-04T18:09:05.009Z,11.13
2022-10-04T18:11:47.176Z,11.01
2022-10-04T18:14:38.737Z,10.98
2022-10-04T18:17:09.011Z,10.94
2022-10-04T18:19:44.826Z,10.93
2022-10-04T18:22:15.560Z,10.98
2022-10-04T18:24:44.867Z,10.98
2022-10-04T18:27:21.719Z,10.96
2022-10-04T18:30:13.370Z,11.01
2022-10-04T18:32:47.583Z,11.01
2022-10-04T18:35:26.619Z,10.91
2022-10-04T18:37:56.664Z,10.87
2022-10-04T18:40:27.103Z,10.94
2022-10-04T18:42:58.532Z,10.86
2022-10-04T18:45:28.491Z,10.69
2022-10-04T18:48:03.037Z,10.81
2022-10-04T18:50:38.783Z,10.78
2022-10-04T18:53:38.170Z,10.76
2022-10-04T18:56:09.218Z,10.75
2022-10-04T18:59:20.260Z,10.73
2022-10-04T19:02:04.115Z,10.71
2022-10-04T19:04:47.786Z,10.59
2022-10-04T19:07:18.310Z,10.66
2022-10-04T19:10:30.121Z,10.68
2022-10-04T19:13:22.691Z,10.69
2022-10-04T19:16:14.586Z,10.72
2022-10-04T19:18:57.840Z,10.69
2022-10-04T19:21:38.691Z,10.55
2022-10-04T19:24:30.263Z,10.61
2022-10-04T19:27:05.736Z,10.57
2022-10-04T19:29:45.577Z,10.54
2022-10-04T19:32:29.143Z,10.56
2022-10-04T19:35:10.435Z,10.45
2022-10-04T19:37:47.281Z,10.34
2022-10-04T19:40:24.748Z,10.24
2022-10-04T19:43:01.375Z,10.17
2022-10-04T19:45:39.019Z,10.06
2022-10-04T19:48:23.340Z,10.08
2022-10-04T19:51:00.531Z,9.97
2022-10-04T19:53:38.240Z,10.12
2022-10-04T19:56:15.485Z,10.06
2022-10-04T19:58:45.266Z,9.97
2022-10-04T20:01:17.497Z,9.91
2022-10-04T20:03:46.839Z,9.88
2022-10-04T20:06:21.852Z,9.88
2022-10-04T20:08:56.746Z,9.87
2022-10-04T20:11:50.568Z,9.79
2022-10-04T20:14:52.142Z,9.80
2022-10-04T20:17:33.886Z,9.84
2022-10-04T20:20:03.078Z,9.85
2022-10-04T20:22:54.394Z,9.90
2022-10-04T20:25:59.638Z,9.89
2022-10-04T20:28:44.428Z,9.77
2022-10-04T20:31:28.773Z,9.79
2022-10-04T20:33:56.776Z,9.79
2022-10-04T20:36:56.936Z,9.82
2022-10-04T20:40:01.366Z,9.80
2022-10-04T20:42:35.196Z,9.81
2022-10-04T20:45:21.746Z,9.88
2022-10-04T20:47:50.875Z,9.88
2022-10-04T20:50:34.868Z,9.81
2022-10-04T20:53:07.947Z,9.76
2022-10-04T20:55:40.056Z,9.73
2022-10-04T20:58:25.439Z,9.61
2022-10-04T21:00:57.203Z,9.53
2022-10-04T21:03:25.747Z,9.51
2022-10-04T21:06:02.360Z,9.61
2022-10-04T21:08:31.688Z,9.63
2022-10-04T21:11:20.205Z,9.59
2022-10-04T21:14:01.997Z,9.55
2022-10-04T21:16:40.899Z,9.54
2022-10-04T21:19:45.204Z,9.63
2022-10-04T21:22:37.543Z,9.58
2022-10-04T21:25:40.971Z,9.53
2022-10-04T21:28:33.712Z,9.45
2022-10-04T21:31:02.481Z,9.41
2022-10-04T21:33:33.244Z,9.37
2022-10-04T21:36:01.399Z,9.38
2022-10-04T21:38:29.536Z,9.43
2022-10-04T21:40:57.528Z,9.41
2022-10-04T21:43:27.032Z,9.32
2022-10-04T21:46:01.719Z,9.31
2022-10-04T21:48:29.766Z,9.20
2022-10-04T21:50:57.565Z,9.05
2022-10-04T21:53:25.461Z,8.94
2022-10-04T21:55:53.194Z,8.79
2022-10-04T21:58:21.010Z,9.23
2022-10-04T22:00:50.507Z,9.42
2022-10-04T22:03:18.366Z,9.54
2022-10-04T22:05:46.160Z,9.57
2022-10-04T22:08:13.919Z,9.64
2022-10-04T22:10:43.134Z,9.76
2022-10-04T22:13:11.003Z,9.88
2022-10-04T22:15:38.821Z,10.01
2022-10-04T22:18:08.333Z,10.07
2022-10-04T22:20:37.928Z,10.06
2022-10-04T22:23:11.669Z,9.98
2022-10-04T22:25:41.305Z,9.86
2022-10-04T22:28:19.031Z,9.64
2022-10-04T22:30:47.297Z,9.38
2022-10-04T22:33:28.738Z,9.28
2022-10-04T22:35:57.633Z,9.50
2022-10-04T22:38:25.539Z,9.58
2022-10-04T22:40:54.206Z,9.75
2022-10-04T22:43:21.967Z,9.85
2022-10-04T22:45:49.761Z,9.85
2022-10-04T22:48:17.632Z,9.79
2022-10-04T22:50:46.751Z,9.64
2022-10-04T22:53:20.181Z,9.57
2022-10-04T22:55:49.158Z,9.65
2022-10-04T22:58:17.260Z,9.58
2022-10-04T23:00:46.109Z,9.71
2022-10-04T23:03:26.061Z,9.78
2022-10-04T23:05:55.257Z,9.77
2022-10-04T23:08:23.012Z,9.56
2022-10-04T23:10:54.581Z,9.54
2022-10-04T23:13:24.813Z,9.55
2022-10-04T23:15:53.734Z,9.79
2022-10-04T23:18:21.635Z,9.86
2022-10-04T23:20:52.768Z,9.87
2022-10-04T23:23:22.166Z,9.90
2022-10-04T23:25:50.573Z,9.87
2022-10-04T23:28:20.007Z,9.81
2022-10-04T23:30:58.716Z,9.74
2022-10-04T23:33:26.544Z,9.70
2022-10-04T23:35:55.767Z,9.57
2022-10-04T23:38:26.400Z,9.60
2022-10-04T23:40:54.272Z,9.54
2022-10-04T23:43:25.625Z,9.63
2022-10-04T23:45:54.423Z,9.54
2022-10-04T23:48:25.129Z,9.34
2022-10-04T23:50:55.250Z,9.29
2022-10-04T23:53:28.557Z,9.38
2022-10-04T23:55:57.312Z,9.38
2022-10-04T23:58:30.971Z,9.17
